Alpena, South Dakota
Current Conditions -  °F | °C
As of 9:48 AM on Saturday 20 Dec 2014 (Local Time) from KHON Reporting Station
Moderate Fog Moderate Fog  
Wind Chill: -9°   Ceiling: 200
Heat Index: -3°   Visibility: 0.25mi
Dew Point: -4°   Wind: 12mph
Humidity: 96%   Direction: 180°S
Pressure: 30.03"   Gusts: NA
Location:  44.18°N, 98.37°W
Report Text: KHON 201548Z AUTO 18010KT 1/4SM FZFG VV002 M03/M04 A3003 RMK AO2 I1001 T10331039
Loading
Personal Weather Stations






























Interactive Weather Map New forecast layout! Learn more

10-Day Weather Forecast

Advertisements
Track Severe Weather on mobile